Latest Weather Observations for Cape Byron

IDN60801

Issued at 3:03 pm EST Sunday 25 September 2016 (issued every 30 minutes, with the page automatically refreshed every 10 minutes)

About weather observations | Map of weather stations | Latest weather observations for NSW | Other Formats
Station Details ID: 058216 Name: CAPE BYRON AWS Lat: -28.64 Lon: 153.64 Height: 95.0 m
Data from the previous 72 hours. | See also: Recent months at Cape Byron
Date/Time
EST
Temp
°C
App
Temp
°C
Dew
Point
°C
Rel
Hum
%
Delta-T
°C
Wind Press
QNH
hPa
Press
MSL
hPa
Rain since
9am
mm
Dir  Spd
km/h
Gust
km/h
Spd
kts
Gust
kts
25/03:00pm 26.5 22.7 11.0 38 8.8 W 22 39 12 21 1004.8 1004.6 0.0
25/02:30pm 26.0 22.0 11.7 41 8.2 WNW 24 43 13 23 1004.5 1004.3 0.0
25/02:28pm 25.9 21.8 11.6 40 8.2 WNW 24 43 13 23 1004.5 1004.3 0.0
25/02:00pm 23.9 23.1 14.0 54 5.9 N 11 19 6 10 1004.7 1004.5 0.0
25/01:30pm 23.2 23.3 15.5 62 4.6 NNE 9 19 5 10 1005.3 1005.1 0.0
25/01:00pm 22.1 21.1 15.7 67 3.9 NNE 15 22 8 12 1005.8 1005.5 0.0
25/12:30pm 23.3 20.8 12.3 50 6.3 NE 17 20 9 11 1005.8 1005.5 0.0
25/12:00pm 24.3 22.2 11.3 44 7.4 NE 13 17 7 9 1006.4 1006.1 0.0
25/11:30am 23.2 21.9 13.7 55 5.6 NE 13 19 7 10 1006.7 1006.4 0.0
25/11:00am 23.7 21.7 11.4 46 6.9 NE 13 15 7 8 1007.1 1006.8 0.0
25/10:30am 23.0 22.7 13.2 54 5.7 NNE 7 13 4 7 1007.7 1007.4 0.0
25/10:00am 23.1 22.1 12.4 51 6.1 N 9 15 5 8 1008.2 1007.9 0.0
25/09:30am 22.8 21.8 12.4 52 5.9 NW 9 15 5 8 1008.6 1008.3 0.0
25/09:00am 21.2 20.1 11.8 55 5.3 NW 9 17 5 9 1009.0 1008.7 0.0
25/08:30am 18.8 17.6 11.6 63 4.0 NNW 9 11 5 6 1009.0 1008.7 0.0
25/08:00am 18.0 16.5 10.6 62 4.0 NW 9 13 5 7 1009.1 1008.8 0.0
25/07:30am 17.4 15.9 11.9 70 3.0 NW 11 17 6 9 1009.3 1009.0 0.0
25/07:00am 16.8 15.0 12.1 74 2.6 NW 13 17 7 9 1009.2 1008.9 0.0
25/06:30am 17.0 16.1 12.5 75 2.5 NW 9 13 5 7 1009.0 1008.7 0.0
25/06:00am 17.2 16.5 11.9 71 2.9 N 7 11 4 6 1008.9 1008.6 0.0
25/05:30am 16.9 16.2 12.0 73 2.7 N 7 11 4 6 1008.7 1008.4 0.0
25/05:00am 15.9 15.3 12.3 79 2.0 NNW 7 13 4 7 1008.8 1008.5 0.0
25/04:30am 15.2 14.7 12.5 84 1.5 NW 7 13 4 7 1008.0 1007.7 0.0
25/04:00am 15.4 15.1 13.4 88 1.1 NW 7 11 4 6 1008.0 1007.7 0.0
25/03:30am 16.3 16.5 14.3 88 1.1 NNW 6 9 3 5 1008.1 1007.8 0.0
25/03:00am 16.8 16.1 14.4 86 1.4 NNW 11 17 6 9 1008.1 1007.8 0.0
25/02:30am 16.4 16.3 13.9 85 1.4 NNW 7 11 4 6 1008.4 1008.1 0.0
25/02:00am 16.5 16.2 14.3 87 1.3 NNW 9 15 5 8 1008.6 1008.3 0.0
25/01:30am 16.2 16.1 13.9 86 1.3 NNW 7 11 4 6 1009.2 1008.9 0.0
25/01:00am 15.9 16.0 13.9 88 1.1 NNW 6 9 3 5 1009.4 1009.1 0.0
25/12:30am 16.6 16.6 14.2 86 1.4 NNE 7 11 4 6 1009.6 1009.3 0.0
25/12:00am 17.0 17.2 14.6 86 1.4 NW 7 11 4 6 1009.6 1009.3 0.0
 
Date/Time
EST
Temp
°C
App
Temp
°C
Dew
Point
°C
Rel
Hum
%
Delta-T
°C
Wind Press
QNH
hPa
Press
MSL
hPa
Rain since
9am
mm
Dir  Spd
km/h
Gust
km/h
Spd
kts
Gust
kts
24/11:30pm 17.4 17.3 14.9 85 1.5 N 9 13 5 7 1009.9 1009.6 0.0
24/11:00pm 16.9 17.0 14.4 85 1.4 NNW 7 11 4 6 1010.2 1009.9 0.0
24/10:30pm 17.4 17.6 14.7 84 1.6 NW 7 13 4 7 1010.5 1010.2 0.0
24/10:00pm 17.8 17.6 14.7 82 1.8 NNW 9 13 5 7 1010.6 1010.3 0.0
24/09:30pm 18.1 17.9 14.8 81 1.9 NNW 9 17 5 9 1010.6 1010.3 0.0
24/09:00pm 18.5 17.6 14.8 79 2.2 NNW 13 20 7 11 1010.6 1010.3 0.0
24/08:30pm 18.5 17.7 15.0 80 2.0 NNW 13 17 7 9 1010.8 1010.5 0.0
24/08:00pm 18.8 18.3 16.0 84 1.7 N 13 15 7 8 1010.9 1010.6 0.0
24/07:30pm 19.2 18.2 15.7 80 2.1 N 15 19 8 10 1010.7 1010.4 0.0
24/07:00pm 20.1 17.1 11.8 59 4.6 NNE 19 24 10 13 1010.6 1010.3 0.0
24/06:30pm 20.2 17.3 12.2 60 4.5 NNE 19 24 10 13 1010.4 1010.1 0.0
24/06:00pm 20.3 17.9 12.5 61 4.4 NNE 17 22 9 12 1010.2 1009.9 0.0
24/05:30pm 20.5 17.6 12.2 59 4.7 NE 19 24 10 13 1009.9 1009.6 0.0
24/05:00pm 21.2 18.2 12.6 58 4.9 NE 20 26 11 14 1009.8 1009.5 0.0
24/04:30pm 21.8 19.1 12.9 57 5.1 NE 19 30 10 16 1009.5 1009.2 0.0
24/04:00pm 21.8 17.7 14.9 65 4.1 NE 30 33 16 18 1009.4 1009.1 0.0
24/03:30pm 23.1 20.0 15.7 63 4.5 ENE 26 33 14 18 1009.4 1009.1 0.0
24/03:00pm 23.6 20.4 16.4 64 4.4 NE 28 32 15 17 1009.4 1009.1 0.0
24/02:30pm 24.6 22.7 15.8 58 5.4 ENE 20 28 11 15 1009.5 1009.2 0.0
24/02:00pm 24.3 21.4 15.2 57 5.5 NE 24 32 13 17 1009.7 1009.4 0.0
24/01:30pm 25.1 23.3 16.0 57 5.6 ENE 20 26 11 14 1010.1 1009.8 0.0
24/01:00pm 25.1 22.8 15.7 56 5.7 NE 22 28 12 15 1010.5 1010.2 0.0
24/12:30pm 25.6 24.4 16.2 56 5.8 NE 17 19 9 10 1010.8 1010.5 0.0
24/12:00pm 25.2 24.7 15.8 56 5.7 ENE 13 15 7 8 1011.3 1011.1 0.0
24/11:30am 25.4 24.6 16.0 56 5.8 NE 15 17 8 9 1011.8 1011.6 0.0
24/11:00am 23.9 22.7 14.0 54 5.8 NE 13 15 7 8 1012.1 1011.9 0.0
24/10:30am 23.0 22.0 13.5 55 5.5 NNE 11 15 6 8 1012.6 1012.4 0.0
24/10:00am 22.4 22.1 13.2 56 5.3 N 7 13 4 7 1013.0 1012.8 0.0
24/09:30am 22.3 21.9 13.1 56 5.3 NNE 7 9 4 5 1013.2 1013.0 0.0
24/09:00am 22.2 21.7 12.7 55 5.4 N 7 13 4 7 1013.4 1013.2 0.0
24/08:30am 21.4 20.7 12.0 55 5.3 NNW 7 11 4 6 1013.3 1013.1 0.0
24/08:00am 19.6 18.8 11.1 58 4.7 WNW 6 11 3 6 1013.2 1013.0 0.0
24/07:30am 18.0 16.0 11.6 66 3.5 W 13 15 7 8 1013.1 1012.9 0.0
24/07:00am 17.2 14.6 10.6 65 3.5 W 15 17 8 9 1012.9 1012.7 0.0
24/06:30am 17.7 15.7 10.1 61 4.1 W 11 13 6 7 1012.4 1012.2 0.0
24/06:00am 17.5 15.1 10.1 62 3.9 W 13 15 7 8 1012.1 1011.9 0.0
24/05:30am 17.4 15.1 10.3 63 3.8 WSW 13 15 7 8 1011.8 1011.6 0.0
24/05:00am 16.4 14.0 10.0 66 3.4 SW 13 13 7 7 1011.5 1011.3 0.0
24/04:30am 17.2 14.8 10.1 63 3.8 WSW 13 15 7 8 1011.3 1011.1 0.0
24/04:00am 17.2 14.0 9.9 62 3.9 W 17 20 9 11 1011.0 1010.7 0.0
24/03:30am 17.2 13.6 9.9 62 3.9 W 19 22 10 12 1010.9 1010.6 0.0
24/03:00am 17.1 14.6 10.9 67 3.3 W 15 17 8 9 1011.0 1010.7 0.0
24/02:30am 16.4 14.4 11.6 73 2.6 WNW 13 17 7 9 1011.0 1010.7 0.0
24/02:00am 16.4 14.6 12.0 75 2.4 WNW 13 17 7 9 1011.2 1011.0 0.0
24/01:30am 16.2 14.7 11.8 75 2.4 WNW 11 15 6 8 1011.3 1011.1 0.0
24/01:00am 16.2 14.7 11.8 75 2.4 WNW 11 15 6 8 1011.3 1011.1 0.0
24/12:30am 16.0 14.5 12.0 77 2.2 WNW 11 15 6 8 1011.3 1011.1 0.0
24/12:00am 15.8 14.7 12.0 78 2.1 WNW 9 13 5 7 1011.6 1011.4 0.0
 
Date/Time
EST
Temp
°C
App
Temp
°C
Dew
Point
°C
Rel
Hum
%
Delta-T
°C
Wind Press
QNH
hPa
Press
MSL
hPa
Rain since
9am
mm
Dir  Spd
km/h
Gust
km/h
Spd
kts
Gust
kts
23/11:30pm 15.5 14.0 11.9 79 2.0 NW 11 17 6 9 1011.5 1011.3 0.0
23/11:00pm 16.0 14.2 12.0 77 2.2 NW 13 15 7 8 1011.6 1011.4 0.0
23/10:30pm 16.4 14.7 12.4 77 2.2 NW 13 15 7 8 1011.8 1011.6 0.0
23/10:00pm 16.0 14.7 12.4 79 2.0 NW 11 15 6 8 1011.8 1011.6 0.0
23/09:30pm 16.5 15.4 11.9 74 2.5 NW 9 13 5 7 1011.9 1011.7 0.0
23/09:00pm 17.0 16.2 12.9 77 2.3 NW 9 13 5 7 1012.0 1011.8 0.0
23/08:30pm 17.4 16.4 13.5 78 2.2 NW 11 13 6 7 1011.9 1011.7 0.0
23/08:00pm 18.1 17.8 13.4 74 2.7 NNW 7 11 4 6 1011.7 1011.5 0.0
23/07:30pm 19.2 17.5 12.5 65 3.8 NNE 13 15 7 8 1011.2 1011.0 0.0
23/07:00pm 18.9 16.8 12.4 66 3.6 NE 15 17 8 9 1010.8 1010.5 0.0
23/06:30pm 19.1 17.1 12.6 66 3.7 NE 15 17 8 9 1010.5 1010.2 0.0
23/06:00pm 19.2 17.1 12.5 65 3.8 NE 15 19 8 10 1010.1 1009.8 0.0
23/05:30pm 20.0 18.2 12.0 60 4.5 ENE 13 17 7 9 1009.6 1009.3 0.0
23/05:00pm 21.1 19.6 12.0 56 5.1 ENE 11 17 6 9 1009.3 1009.0 0.0
23/04:30pm 22.0 21.2 12.8 56 5.3 ENE 9 13 5 7 1009.2 1008.9 0.0
23/04:00pm 22.2 21.1 11.9 52 5.8 E 9 15 5 8 1009.1 1008.8 0.0
23/03:30pm 22.4 20.7 12.6 54 5.6 E 13 17 7 9 1008.9 1008.6 0.0
23/03:00pm 22.9 20.5 12.8 53 5.8 E 17 20 9 11 1008.8 1008.5 0.0
23/02:30pm 21.9 18.9 12.7 56 5.3 ESE 20 24 11 13 1008.8 1008.5 0.0
23/02:00pm 21.1 17.4 11.4 54 5.4 SE 22 28 12 15 1009.1 1008.8 0.0
23/01:30pm 21.5 18.2 10.9 51 5.9 SE 19 26 10 14 1009.3 1009.0 0.0
23/01:00pm 21.3 18.1 9.9 48 6.2 SE 17 22 9 12 1009.5 1009.2 0.0
23/12:30pm 21.7 19.0 10.5 49 6.1 SSE 15 22 8 12 1009.8 1009.5 0.0
23/12:00pm 21.5 18.2 9.7 47 6.4 SE 17 24 9 13 1010.0 1009.7 0.0
23/11:30am 21.9 17.9 8.4 42 7.1 SW 19 28 10 15 1010.4 1010.1 0.0
23/11:00am 22.1 18.8 8.2 41 7.3 WSW 15 24 8 13 1010.8 1010.5 0.0
23/10:30am 21.1 17.2 7.3 41 7.1 WSW 17 26 9 14 1011.0 1010.7 0.0
23/10:00am 20.3 16.5 7.7 44 6.5 WSW 17 28 9 15 1011.1 1010.8 0.0
23/09:30am 19.5 15.1 7.3 45 6.2 SW 20 28 11 15 1011.3 1011.1 0.0
23/09:00am 18.7 14.2 6.9 46 6.0 SW 20 28 11 15 1011.1 1010.8 0.0
23/08:30am 17.8 13.3 7.0 49 5.4 WSW 20 30 11 16 1011.2 1011.0 0.0
23/08:00am 16.6 10.8 6.4 51 5.0 WSW 26 37 14 20 1011.1 1010.8 0.0
23/07:30am 15.6 9.8 6.3 54 4.5 WSW 26 35 14 19 1010.8 1010.5 0.0
23/07:00am 14.4 8.5 5.7 56 4.2 W 26 37 14 20 1010.6 1010.3 0.0
23/06:30am 13.8 7.1 5.7 58 3.8 WSW 30 35 16 19 1010.3 1010.0 0.0
23/06:00am 13.5 6.8 5.7 59 3.7 W 30 37 16 20 1010.0 1009.7 0.0
23/05:30am 13.5 6.9 5.9 60 3.6 W 30 39 16 21 1009.8 1009.5 0.0
23/05:00am 13.7 7.0 5.8 59 3.8 W 30 37 16 20 1009.6 1009.3 0.0
23/04:30am 13.8 7.6 6.2 60 3.6 W 28 35 15 19 1009.3 1009.0 0.0
23/04:00am 14.1 7.5 6.0 58 3.9 W 30 37 16 20 1009.3 1009.0 0.0
23/03:30am 14.1 8.3 6.2 59 3.8 W 26 32 14 17 1009.3 1009.0 0.0
23/03:00am 14.2 9.1 6.1 58 3.9 W 22 28 12 15 1009.5 1009.2 0.0
23/02:30am 14.6 8.8 6.4 58 4.0 W 26 35 14 19 1009.7 1009.4 0.0
23/02:00am 15.0 8.5 6.6 57 4.1 W 30 39 16 21 1010.0 1009.7 0.0
23/01:30am 15.1 8.3 6.9 58 4.0 WSW 32 44 17 24 1010.0 1009.7 0.0
23/01:00am 15.0 8.9 6.8 58 4.0 W 28 37 15 20 1010.2 1009.9 0.0
23/12:30am 15.2 8.7 6.7 57 4.2 W 30 37 16 20 1010.5 1010.2 0.0
23/12:00am 15.7 9.6 6.7 55 4.4 W 28 35 15 19 1010.7 1010.4 0.0
 
Date/Time
EST
Temp
°C
App
Temp
°C
Dew
Point
°C
Rel
Hum
%
Delta-T
°C
Wind Press
QNH
hPa
Press
MSL
hPa
Rain since
9am
mm
Dir  Spd
km/h
Gust
km/h
Spd
kts
Gust
kts
22/11:30pm 15.7 10.4 7.0 56 4.3 WNW 24 35 13 19 1010.9 1010.6 0.0
22/11:00pm 15.8 10.9 7.1 56 4.3 WNW 22 32 12 17 1010.9 1010.6 0.0
22/10:30pm 16.3 11.4 6.7 53 4.7 WNW 22 30 12 16 1011.0 1010.7 0.0
22/10:00pm 16.8 11.5 6.6 51 5.0 WNW 24 35 13 19 1011.2 1011.0 0.0
22/09:30pm 17.2 11.1 6.7 50 5.2 W 28 39 15 21 1011.3 1011.1 0.0
22/09:00pm 17.3 12.0 6.8 50 5.2 W 24 35 13 19 1011.1 1010.8 0.0
22/08:30pm 17.2 12.3 7.0 51 5.1 WNW 22 33 12 18 1011.0 1010.7 0.0
22/08:00pm 17.6 13.1 7.1 50 5.3 WNW 20 30 11 16 1010.8 1010.5 0.0
22/07:30pm 17.6 13.9 6.2 47 5.6 WNW 15 22 8 12 1010.8 1010.5 0.0
22/07:00pm 18.3 13.8 6.2 45 6.0 WNW 19 24 10 13 1010.4 1010.1 0.0
22/06:30pm 18.8 14.3 6.3 44 6.2 WNW 19 28 10 15 1010.1 1009.8 0.0
22/06:00pm 19.3 14.8 6.8 44 6.3 W 20 30 11 16 1009.7 1009.4 0.0
22/05:30pm 20.1 15.2 7.1 43 6.6 WNW 22 32 12 17 1009.1 1008.8 0.0
22/05:00pm 21.3 14.6 5.6 36 7.9 W 30 52 16 28 1008.5 1008.2 0.0
22/04:43pm 21.7 15.3 6.8 38 7.6 WNW 30 48 16 26 1008.1 1007.8 0.0
22/04:30pm 22.0 14.8 5.8 35 8.2 W 33 50 18 27 1007.9 1007.6 0.0
22/04:04pm 22.5 15.5 5.9 34 8.4 W 32 52 17 28 1007.7 1007.4 0.0
22/04:00pm 22.6 15.6 6.0 34 8.5 W 32 46 17 25 1007.7 1007.4 0.0
22/03:58pm 22.8 16.2 6.1 34 8.5 W 30 48 16 26 1007.7 1007.4 0.0
22/03:30pm 23.3 17.7 7.0 35 8.5 W 26 39 14 21 1007.5 1007.2 0.0

Other Formats:

Comma delimited format used in spreadsheet applications
http://www.bom.gov.au/fwo/IDN60801/IDN60801.94599.axf

JavaScript Object Notation format (JSON) in row-major order
http://www.bom.gov.au/fwo/IDN60801/IDN60801.94599.json